Time;durP1;ratioP1;P1;durP2;ratioP2;P2;SDS_P1;SDS_P2;PMS_P1;PMS_P2;Temp;Humidity;BMP_temperature;BMP_pressure;BME280_temperature;BME280_humidity;BME280_pressure;Samples;Min_cycle;Max_cycle;Signal;HPM_P1;HPM_P2
2022/11/07 00:01:11;;;;;;;;;;;17.10;54.80;;;;;;5063190;28;19913;-86
2022/11/07 00:03:36;;;;;;;;;;;17.10;54.90;;;;;;5077785;28;20271;-87
2022/11/07 00:06:02;;;;;;;;;;;17.10;54.20;;;;;;5076488;28;19942;-87
2022/11/07 00:08:30;;;;;;;;;;;17.10;54.00;;;;;;5076411;28;19912;-87
2022/11/07 00:10:56;;;;;;;;;;;17.10;53.70;;;;;;5076585;28;20309;-88
2022/11/07 00:13:22;;;;;;;;;;;17.00;53.40;;;;;;5077707;28;19918;-88
2022/11/07 00:15:47;;;;;;;;;;;17.20;53.80;;;;;;5078010;28;19921;-87
2022/11/07 00:18:13;;;;;;;;;;;17.00;53.40;;;;;;5077257;28;19913;-89
2022/11/07 00:20:38;;;;;;;;;;;17.00;53.20;;;;;;5077182;28;19916;-88
2022/11/07 00:23:04;;;;;;;;;;;17.20;53.50;;;;;;5076129;28;20371;-89
2022/11/07 00:25:29;;;;;;;;;;;17.20;53.40;;;;;;5074843;28;19927;-87
2022/11/07 00:27:55;;;;;;;;;;;17.20;53.50;;;;;;5064498;28;19919;-88
2022/11/07 00:30:20;;;;;;;;;;;17.30;53.80;;;;;;5077000;28;19915;-88
2022/11/07 00:32:46;;;;;;;;;;;17.30;53.80;;;;;;5064471;28;19916;-88
2022/11/07 00:35:12;;;;;;;;;;;17.30;53.80;;;;;;5077687;28;20484;-86
2022/11/07 00:37:37;;;;;;;;;;;17.30;53.40;;;;;;5080025;28;19917;-87
2022/11/07 00:40:03;;;;;;;;;;;17.30;53.50;;;;;;5075421;28;19912;-87
2022/11/07 00:42:28;;;;;;;;;;;17.30;53.40;;;;;;5076626;28;19917;-88
2022/11/07 00:44:54;;;;;;;;;;;17.30;53.30;;;;;;5067522;28;19920;-88
2022/11/07 00:47:19;;;;;;;;;;;17.30;53.40;;;;;;5075006;28;19913;-85
2022/11/07 00:49:45;;;;;;;;;;;17.40;53.40;;;;;;5059811;28;20367;-87
2022/11/07 00:52:10;;;;;;;;;;;17.30;53.10;;;;;;5056031;28;19920;-87
2022/11/07 00:54:40;;;;;;;;;;;17.40;53.20;;;;;;5055335;28;19940;-86
2022/11/07 00:57:05;;;;;;;;;;;17.30;52.90;;;;;;5061863;28;20481;-89
2022/11/07 00:59:31;;;;;;;;;;;17.40;53.10;;;;;;5063234;28;19916;-88
2022/11/07 01:01:56;;;;;;;;;;;17.30;52.80;;;;;;5056642;28;19913;-85
2022/11/07 01:07:06;;;;;;;;;;;17.30;52.50;;;;;;5070963;28;19944;-88
2022/11/07 01:09:31;;;;;;;;;;;17.20;52.20;;;;;;5052407;28;19916;-88
2022/11/07 01:11:57;;;;;;;;;;;17.30;52.50;;;;;;5051886;28;19912;-89
2022/11/07 01:14:25;;;;;;;;;;;17.40;52.60;;;;;;5053612;28;19921;-88
2022/11/07 01:16:50;;;;;;;;;;;17.40;52.50;;;;;;5057630;28;19919;-88
2022/11/07 01:19:17;;;;;;;;;;;17.40;52.50;;;;;;5054780;28;20383;-86
2022/11/07 01:21:42;;;;;;;;;;;17.40;52.70;;;;;;5062651;28;19916;-90
2022/11/07 01:24:09;;;;;;;;;;;17.40;52.30;;;;;;5054430;28;19917;-85
2022/11/07 01:26:35;;;;;;;;;;;17.50;52.20;;;;;;5059285;28;19920;-87
2022/11/07 01:29:01;;;;;;;;;;;17.40;52.20;;;;;;5073045;28;20482;-87
2022/11/07 01:31:26;;;;;;;;;;;17.40;52.00;;;;;;5074154;28;19912;-86
2022/11/07 01:33:52;;;;;;;;;;;17.40;52.30;;;;;;5071524;28;19952;-89
2022/11/07 01:36:17;;;;;;;;;;;17.40;52.10;;;;;;5072921;28;19924;-88
2022/11/07 01:38:49;;;;;;;;;;;17.40;52.00;;;;;;5072860;28;19918;-86
2022/11/07 01:41:25;;;;;;;;;;;17.40;51.80;;;;;;5071953;28;19912;-89
2022/11/07 01:43:51;;;;;;;;;;;17.40;52.00;;;;;;5073606;28;19920;-87
2022/11/07 01:46:17;;;;;;;;;;;17.50;52.10;;;;;;5055636;28;20359;-87
2022/11/07 01:48:53;;;;;;;;;;;17.50;52.10;;;;;;5051626;28;19920;-87
2022/11/07 01:51:19;;;;;;;;;;;17.60;52.30;;;;;;5068919;28;19913;-87
2022/11/07 01:53:44;;;;;;;;;;;17.60;52.10;;;;;;5052377;28;19913;-90
2022/11/07 01:56:15;;;;;;;;;;;17.60;51.90;;;;;;5052558;28;19928;-87
2022/11/07 01:58:41;;;;;;;;;;;17.60;52.10;;;;;;5052407;28;19997;-89
2022/11/07 02:01:06;;;;;;;;;;;17.60;52.30;;;;;;5075206;28;19912;-88
2022/11/07 02:03:32;;;;;;;;;;;17.60;52.10;;;;;;5065141;28;19921;-88
2022/11/07 02:06:02;;;;;;;;;;;17.70;52.00;;;;;;5057452;28;19920;-88
2022/11/07 02:08:29;;;;;;;;;;;17.70;51.60;;;;;;5054512;28;19912;-87
2022/11/07 02:10:55;;;;;;;;;;;17.60;52.10;;;;;;5072506;28;19912;-88
2022/11/07 02:13:24;;;;;;;;;;;17.60;51.80;;;;;;5059171;28;20011;-88
2022/11/07 02:15:50;;;;;;;;;;;17.60;51.90;;;;;;5063925;28;19921;-89
2022/11/07 02:18:16;;;;;;;;;;;17.60;51.80;;;;;;5063520;28;20390;-89
2022/11/07 02:20:42;;;;;;;;;;;17.50;51.60;;;;;;5055456;28;20252;-88
2022/11/07 02:23:12;;;;;;;;;;;17.60;51.70;;;;;;5064062;28;20298;-89
2022/11/07 02:25:37;;;;;;;;;;;17.70;51.90;;;;;;5064578;28;19931;-89
2022/11/07 02:28:06;;;;;;;;;;;17.70;51.90;;;;;;5062777;28;20307;-86
2022/11/07 02:30:33;;;;;;;;;;;17.50;51.60;;;;;;5053632;28;19919;-89
2022/11/07 02:32:59;;;;;;;;;;;17.60;51.70;;;;;;5062354;28;20265;-88
2022/11/07 02:35:33;;;;;;;;;;;17.70;51.80;;;;;;5059362;28;20363;-88
2022/11/07 02:37:59;;;;;;;;;;;17.70;51.70;;;;;;5058580;28;19917;-88
2022/11/07 02:40:26;;;;;;;;;;;17.60;51.70;;;;;;5068980;28;19913;-89
2022/11/07 02:42:51;;;;;;;;;;;17.60;51.60;;;;;;5057950;28;19924;-88
2022/11/07 02:45:23;;;;;;;;;;;17.70;51.70;;;;;;5062688;28;19913;-88
2022/11/07 02:47:48;;;;;;;;;;;17.60;51.50;;;;;;5058413;28;19917;-88
2022/11/07 02:50:15;;;;;;;;;;;17.70;51.50;;;;;;5061938;28;20035;-88
2022/11/07 02:52:40;;;;;;;;;;;17.60;51.50;;;;;;5050876;28;20078;-88
2022/11/07 02:55:07;;;;;;;;;;;17.30;51.70;;;;;;5051150;28;19959;-88
2022/11/07 02:57:32;;;;;;;;;;;17.40;51.80;;;;;;5053746;28;19923;-86
2022/11/07 02:59:58;;;;;;;;;;;17.40;51.60;;;;;;5051243;28;19913;-87
2022/11/07 03:02:24;;;;;;;;;;;17.40;51.60;;;;;;5052489;28;20351;-88
2022/11/07 03:04:50;;;;;;;;;;;17.30;51.70;;;;;;5058933;28;19916;-87
2022/11/07 03:07:16;;;;;;;;;;;17.30;52.00;;;;;;5060736;28;19920;-87
2022/11/07 03:09:41;;;;;;;;;;;17.30;52.10;;;;;;5063739;28;19916;-88
2022/11/07 03:12:07;;;;;;;;;;;17.30;52.30;;;;;;5054588;28;20393;-86
2022/11/07 03:14:32;;;;;;;;;;;17.30;52.60;;;;;;5061430;28;20709;-85
2022/11/07 03:16:58;;;;;;;;;;;17.30;52.50;;;;;;5062535;28;19912;-87
2022/11/07 03:19:23;;;;;;;;;;;17.30;52.50;;;;;;5058524;28;19916;-88
2022/11/07 03:21:49;;;;;;;;;;;17.40;52.30;;;;;;5063067;28;19919;-88
2022/11/07 03:24:15;;;;;;;;;;;17.40;52.30;;;;;;5052141;28;19917;-89
2022/11/07 03:26:41;;;;;;;;;;;17.40;52.20;;;;;;5055681;28;20313;-87
2022/11/07 03:29:06;;;;;;;;;;;17.40;52.10;;;;;;5061710;28;19924;-88
2022/11/07 03:31:32;;;;;;;;;;;17.40;52.20;;;;;;5051065;28;19994;-86
2022/11/07 03:33:57;;;;;;;;;;;17.30;52.00;;;;;;5059312;28;19916;-88
2022/11/07 03:36:23;;;;;;;;;;;17.40;52.00;;;;;;5069635;28;19917;-87
2022/11/07 03:38:49;;;;;;;;;;;17.40;52.10;;;;;;5067308;28;19942;-87
2022/11/07 03:41:16;;;;;;;;;;;17.40;52.00;;;;;;5059711;28;20011;-89
2022/11/07 03:43:44;;;;;;;;;;;17.30;52.10;;;;;;5064601;28;19912;-88
2022/11/07 03:46:10;;;;;;;;;;;17.50;52.00;;;;;;5068431;28;19919;-89
2022/11/07 03:48:35;;;;;;;;;;;17.40;51.90;;;;;;5070379;28;19959;-88
2022/11/07 03:51:00;;;;;;;;;;;17.50;51.90;;;;;;5051861;28;19952;-87
2022/11/07 03:53:26;;;;;;;;;;;17.50;51.90;;;;;;5054601;28;19913;-87
2022/11/07 03:55:53;;;;;;;;;;;17.50;51.80;;;;;;5050952;28;19974;-86
2022/11/07 03:58:18;;;;;;;;;;;17.50;51.70;;;;;;5050073;28;19946;-87
2022/11/07 04:00:44;;;;;;;;;;;17.50;51.50;;;;;;5053071;28;20003;-89
2022/11/07 04:03:09;;;;;;;;;;;17.60;51.60;;;;;;5064912;28;19912;-89
2022/11/07 04:05:35;;;;;;;;;;;17.40;51.50;;;;;;5068860;28;19927;-87
2022/11/07 04:08:00;;;;;;;;;;;17.50;51.60;;;;;;5049610;28;19913;-87
2022/11/07 04:10:28;;;;;;;;;;;17.50;51.60;;;;;;5049296;28;20007;-86
2022/11/07 04:18:23;;;;;;;;;;;17.70;51.50;;;;;;5053942;28;19927;-87
2022/11/07 04:20:48;;;;;;;;;;;17.70;51.50;;;;;;5063581;28;19912;-87
2022/11/07 04:23:14;;;;;;;;;;;17.80;51.40;;;;;;5069199;28;19916;-87
2022/11/07 04:28:23;;;;;;;;;;;17.70;51.20;;;;;;5070723;28;19924;-89
2022/11/07 04:30:49;;;;;;;;;;;17.80;51.40;;;;;;5062376;28;19913;-86
2022/11/07 04:33:15;;;;;;;;;;;17.80;51.20;;;;;;5064983;28;19924;-88
2022/11/07 04:35:40;;;;;;;;;;;17.80;51.10;;;;;;5073501;28;19964;-89
2022/11/07 04:38:06;;;;;;;;;;;17.80;51.00;;;;;;5059819;28;19924;-89
2022/11/07 04:40:31;;;;;;;;;;;17.80;51.00;;;;;;5066770;28;19913;-88
2022/11/07 04:42:57;;;;;;;;;;;17.80;51.10;;;;;;5054444;28;20007;-86
2022/11/07 04:45:22;;;;;;;;;;;17.80;51.00;;;;;;5059777;28;19920;-89
2022/11/07 04:47:48;;;;;;;;;;;17.80;51.10;;;;;;5053881;28;19912;-88
2022/11/07 04:50:15;;;;;;;;;;;17.80;51.10;;;;;;5053978;28;19909;-87
2022/11/07 04:52:40;;;;;;;;;;;17.70;51.00;;;;;;5054430;28;19916;-87
2022/11/07 04:55:07;;;;;;;;;;;17.70;50.90;;;;;;5052450;28;19917;-88
2022/11/07 04:57:32;;;;;;;;;;;17.70;50.90;;;;;;5067720;28;19917;-85
2022/11/07 04:59:58;;;;;;;;;;;17.80;51.00;;;;;;5074053;28;19909;-88
2022/11/07 05:02:24;;;;;;;;;;;17.80;51.10;;;;;;5073542;28;19912;-89
2022/11/07 05:04:50;;;;;;;;;;;17.70;51.00;;;;;;5073918;28;20251;-87
2022/11/07 05:07:18;;;;;;;;;;;17.70;51.00;;;;;;5074479;28;19923;-87
2022/11/07 05:09:43;;;;;;;;;;;17.70;51.00;;;;;;5073881;28;20414;-89
2022/11/07 05:12:09;;;;;;;;;;;17.50;51.10;;;;;;5078195;28;20005;-87
2022/11/07 05:14:35;;;;;;;;;;;17.50;51.20;;;;;;5071920;28;20382;-87
2022/11/07 05:17:01;;;;;;;;;;;17.40;51.50;;;;;;5072531;28;19958;-86
2022/11/07 05:19:27;;;;;;;;;;;17.30;51.60;;;;;;5074095;28;19912;-88
2022/11/07 05:23:10;;;;;;;;;;;17.20;52.00;;;;;;5073680;28;19916;-88
2022/11/07 05:24:38;;;;;;;;;;;17.20;52.00;;;;;;5067994;28;19955;-87
2022/11/07 05:27:04;;;;;;;;;;;17.20;52.20;;;;;;5072186;28;19963;-86
2022/11/07 05:29:32;;;;;;;;;;;17.10;52.30;;;;;;5073473;28;22636;-87
2022/11/07 05:31:57;;;;;;;;;;;17.20;52.40;;;;;;5072066;28;19920;-88
2022/11/07 05:34:23;;;;;;;;;;;17.30;52.30;;;;;;5063077;28;19951;-87
2022/11/07 05:36:48;;;;;;;;;;;17.30;52.20;;;;;;5062844;28;20344;-86
2022/11/07 05:39:14;;;;;;;;;;;17.30;52.10;;;;;;5052018;28;20036;-89
2022/11/07 05:41:39;;;;;;;;;;;17.40;52.10;;;;;;5062168;28;20499;-88
2022/11/07 05:44:05;;;;;;;;;;;17.30;52.10;;;;;;5061396;28;19921;-87
2022/11/07 05:46:31;;;;;;;;;;;17.40;52.10;;;;;;5059905;28;20000;-88
2022/11/07 05:48:56;;;;;;;;;;;17.40;52.20;;;;;;5061750;28;19912;-88
2022/11/07 05:51:22;;;;;;;;;;;17.40;52.00;;;;;;5071364;28;20282;-88
2022/11/07 05:53:47;;;;;;;;;;;17.40;52.00;;;;;;5069336;28;19935;-89
2022/11/07 05:56:13;;;;;;;;;;;17.50;52.00;;;;;;5066322;28;19944;-86
2022/11/07 05:58:38;;;;;;;;;;;17.40;51.90;;;;;;5058589;28;19913;-86
2022/11/07 06:01:05;;;;;;;;;;;17.40;51.90;;;;;;5062662;28;20081;-88
2022/11/07 06:03:31;;;;;;;;;;;17.40;52.00;;;;;;5063575;28;19912;-88
2022/11/07 06:05:57;;;;;;;;;;;17.40;51.90;;;;;;5070313;28;20308;-89
2022/11/07 06:08:25;;;;;;;;;;;17.40;52.20;;;;;;5056218;28;19916;-88
2022/11/07 06:10:50;;;;;;;;;;;17.40;52.10;;;;;;5062235;28;20037;-87
2022/11/07 06:13:16;;;;;;;;;;;17.30;52.00;;;;;;5055855;28;19924;-88
2022/11/07 06:15:45;;;;;;;;;;;17.30;52.10;;;;;;5071840;28;19921;-87
2022/11/07 06:18:12;;;;;;;;;;;17.30;52.10;;;;;;5064105;28;20416;-85
2022/11/07 06:20:40;;;;;;;;;;;17.30;52.10;;;;;;5053806;28;19913;-86
2022/11/07 06:23:09;;;;;;;;;;;17.30;52.20;;;;;;5052167;28;20371;-87
2022/11/07 06:25:35;;;;;;;;;;;17.40;52.30;;;;;;5050167;28;19921;-87
2022/11/07 06:28:02;;;;;;;;;;;17.30;52.20;;;;;;5052972;28;19920;-87
2022/11/07 06:30:28;;;;;;;;;;;17.40;52.10;;;;;;5058859;28;19912;-88
2022/11/07 06:32:57;;;;;;;;;;;17.40;52.00;;;;;;5065517;28;20355;-87
2022/11/07 06:35:23;;;;;;;;;;;17.50;52.00;;;;;;5067465;28;20386;-86
2022/11/07 06:37:48;;;;;;;;;;;17.50;52.00;;;;;;5060252;28;19917;-88
2022/11/07 06:40:14;;;;;;;;;;;17.50;51.90;;;;;;5061359;28;20244;-88
2022/11/07 06:42:40;;;;;;;;;;;17.50;52.00;;;;;;5055435;28;19924;-87
2022/11/07 06:45:08;;;;;;;;;;;17.50;51.90;;;;;;5059259;28;19917;-88
2022/11/07 06:47:33;;;;;;;;;;;17.50;51.80;;;;;;5059108;28;19929;-87
2022/11/07 06:49:59;;;;;;;;;;;17.30;51.80;;;;;;5062542;28;19916;-88
2022/11/07 06:52:26;;;;;;;;;;;17.30;52.10;;;;;;5063170;28;19917;-88
2022/11/07 06:54:52;;;;;;;;;;;17.30;52.20;;;;;;5062509;28;19973;-89
2022/11/07 06:57:18;;;;;;;;;;;17.40;52.20;;;;;;5062757;28;19917;-88
2022/11/07 06:59:43;;;;;;;;;;;17.40;52.30;;;;;;5064942;28;20268;-87
2022/11/07 07:02:11;;;;;;;;;;;17.60;52.10;;;;;;5065765;28;19950;-88
2022/11/07 07:04:37;;;;;;;;;;;17.70;52.30;;;;;;5058041;28;19916;-88
2022/11/07 07:07:02;;;;;;;;;;;17.90;52.30;;;;;;5054343;28;19932;-88
2022/11/07 07:09:28;;;;;;;;;;;18.20;52.10;;;;;;5057105;28;20347;-88
2022/11/07 07:11:53;;;;;;;;;;;18.30;51.90;;;;;;5069268;28;19916;-87
2022/11/07 07:14:19;;;;;;;;;;;18.50;51.30;;;;;;5065795;28;20707;-89
2022/11/07 07:16:47;;;;;;;;;;;18.40;50.50;;;;;;5054310;28;20423;-87
2022/11/07 07:19:13;;;;;;;;;;;18.50;50.60;;;;;;5070832;28;19912;-88
2022/11/07 07:21:38;;;;;;;;;;;18.50;50.40;;;;;;5064554;28;19961;-88
2022/11/07 07:24:04;;;;;;;;;;;18.50;50.30;;;;;;5066099;28;19960;-87
2022/11/07 07:26:30;;;;;;;;;;;18.60;50.50;;;;;;5059676;28;19920;-88
2022/11/07 07:28:55;;;;;;;;;;;18.80;50.90;;;;;;5068325;28;19927;-89
2022/11/07 07:31:27;;;;;;;;;;;19.10;50.50;;;;;;5068801;28;19966;-88
2022/11/07 07:33:53;;;;;;;;;;;19.30;49.90;;;;;;5067925;28;20027;-87
2022/11/07 07:36:20;;;;;;;;;;;19.50;49.30;;;;;;5069437;28;20007;-88
2022/11/07 07:38:45;;;;;;;;;;;19.50;48.50;;;;;;5065152;28;20405;-88
2022/11/07 07:41:11;;;;;;;;;;;19.40;48.10;;;;;;5067746;28;19924;-87
2022/11/07 07:43:37;;;;;;;;;;;19.50;48.40;;;;;;5066313;28;19927;-88
2022/11/07 07:46:06;;;;;;;;;;;19.50;47.90;;;;;;5064008;28;19913;-88
2022/11/07 07:48:32;;;;;;;;;;;19.40;47.40;;;;;;5067387;28;20021;-87
2022/11/07 07:50:57;;;;;;;;;;;19.40;47.70;;;;;;5072385;28;20469;-88
2022/11/07 07:53:23;;;;;;;;;;;19.50;48.00;;;;;;5074126;28;19920;-88
2022/11/07 07:55:49;;;;;;;;;;;19.60;48.40;;;;;;5067226;28;19924;-88
2022/11/07 07:58:15;;;;;;;;;;;19.90;48.60;;;;;;5065551;28;19917;-87
2022/11/07 08:00:41;;;;;;;;;;;20.00;47.10;;;;;;5068819;28;19916;-87
2022/11/07 08:03:08;;;;;;;;;;;20.20;47.30;;;;;;5069085;28;19917;-88
2022/11/07 08:05:34;;;;;;;;;;;20.20;46.60;;;;;;5070272;28;19927;-88
2022/11/07 08:07:59;;;;;;;;;;;20.30;46.40;;;;;;5071060;28;19917;-88
2022/11/07 08:10:28;;;;;;;;;;;20.50;46.90;;;;;;5069571;28;20411;-89
2022/11/07 08:12:54;;;;;;;;;;;20.50;46.00;;;;;;5067176;28;19927;-88
2022/11/07 08:15:21;;;;;;;;;;;20.60;46.00;;;;;;5070241;28;19931;-87
2022/11/07 08:17:47;;;;;;;;;;;20.80;46.40;;;;;;5071895;28;19916;-87
2022/11/07 08:20:14;;;;;;;;;;;20.90;45.50;;;;;;5069461;28;19966;-88
2022/11/07 08:22:45;;;;;;;;;;;21.20;46.10;;;;;;5070762;28;19916;-88
2022/11/07 08:25:18;;;;;;;;;;;21.40;45.50;;;;;;5072573;28;20358;-86
2022/11/07 08:27:44;;;;;;;;;;;21.70;45.60;;;;;;5084647;28;19916;-88
2022/11/07 08:30:10;;;;;;;;;;;21.80;44.90;;;;;;5072071;28;19916;-87
2022/11/07 08:32:37;;;;;;;;;;;21.80;43.60;;;;;;5071047;28;19916;-88
2022/11/07 08:35:03;;;;;;;;;;;21.80;43.10;;;;;;5069963;28;20268;-87
2022/11/07 08:37:28;;;;;;;;;;;21.70;43.40;;;;;;5071078;28;19966;-88
2022/11/07 08:39:54;;;;;;;;;;;21.80;44.00;;;;;;5070550;28;19968;-88
2022/11/07 08:42:20;;;;;;;;;;;21.80;44.00;;;;;;5065874;28;20300;-88
2022/11/07 08:44:45;;;;;;;;;;;22.00;43.90;;;;;;5068820;28;19921;-88
2022/11/07 08:47:11;;;;;;;;;;;22.00;43.50;;;;;;5065899;28;19913;-88
2022/11/07 08:49:36;;;;;;;;;;;22.00;43.10;;;;;;5063556;28;19920;-87
2022/11/07 08:52:02;;;;;;;;;;;22.00;43.70;;;;;;5065479;28;20007;-88
2022/11/07 08:54:28;;;;;;;;;;;22.20;44.00;;;;;;5069589;28;19920;-87
2022/11/07 08:56:53;;;;;;;;;;;22.50;44.30;;;;;;5070736;28;19981;-88
2022/11/07 08:59:19;;;;;;;;;;;22.70;43.40;;;;;;5065435;28;20303;-88
2022/11/07 09:01:45;;;;;;;;;;;22.80;42.40;;;;;;5065724;28;19916;-88
2022/11/07 09:04:12;;;;;;;;;;;23.10;42.20;;;;;;5075748;28;20057;-88
2022/11/07 09:06:37;;;;;;;;;;;23.30;42.10;;;;;;5084619;28;19912;-87
2022/11/07 09:09:03;;;;;;;;;;;23.50;41.10;;;;;;5081308;28;19928;-88
2022/11/07 09:11:33;;;;;;;;;;;23.80;41.10;;;;;;5064031;28;20367;-88
2022/11/07 09:13:58;;;;;;;;;;;23.80;40.20;;;;;;5066403;28;19962;-88
2022/11/07 09:16:24;;;;;;;;;;;23.90;39.80;;;;;;5058801;28;19924;-88
2022/11/07 09:18:51;;;;;;;;;;;23.80;39.80;;;;;;5063459;28;20014;-89
2022/11/07 09:21:16;;;;;;;;;;;24.00;40.60;;;;;;5068437;28;19953;-86
2022/11/07 09:23:42;;;;;;;;;;;24.10;40.30;;;;;;5077952;28;19923;-88
2022/11/07 09:26:08;;;;;;;;;;;24.30;40.10;;;;;;5078013;28;19931;-89
2022/11/07 09:28:34;;;;;;;;;;;24.40;39.10;;;;;;5074847;28;20399;-88
2022/11/07 09:31:00;;;;;;;;;;;24.50;39.10;;;;;;5076108;28;19927;-89
2022/11/07 09:33:26;;;;;;;;;;;24.70;38.70;;;;;;5070074;28;19920;-88
2022/11/07 09:35:52;;;;;;;;;;;24.80;38.50;;;;;;5089322;28;19928;-87
2022/11/07 09:38:17;;;;;;;;;;;24.70;37.40;;;;;;5079777;28;19923;-89
2022/11/07 09:40:46;;;;;;;;;;;24.50;37.20;;;;;;5076332;28;19928;-89
2022/11/07 09:43:11;;;;;;;;;;;24.40;37.50;;;;;;5068374;28;19928;-88
2022/11/07 09:45:42;;;;;;;;;;;24.30;37.80;;;;;;5056555;28;19917;-88
2022/11/07 09:48:14;;;;;;;;;;;24.20;37.80;;;;;;5050283;28;19967;-88
2022/11/07 09:50:41;;;;;;;;;;;24.10;38.10;;;;;;5068298;28;19921;-88
2022/11/07 09:53:33;;;;;;;;;;;24.00;38.10;;;;;;5063218;28;19917;-87
2022/11/07 09:56:00;;;;;;;;;;;24.00;38.40;;;;;;5067929;28;19930;-88
2022/11/07 09:58:33;;;;;;;;;;;23.90;38.40;;;;;;5070909;28;19939;-88
2022/11/07 10:01:01;;;;;;;;;;;23.90;38.80;;;;;;5064479;28;19950;-88
2022/11/07 10:03:27;;;;;;;;;;;23.90;38.30;;;;;;5067688;28;19916;-88
2022/11/07 10:05:56;;;;;;;;;;;23.90;38.30;;;;;;5068708;28;20370;-88
2022/11/07 10:08:21;;;;;;;;;;;23.90;38.60;;;;;;5069071;28;19956;-89
2022/11/07 10:10:55;;;;;;;;;;;23.80;38.60;;;;;;5066823;28;20355;-89
2022/11/07 10:13:30;;;;;;;;;;;23.70;38.40;;;;;;5065166;28;19917;-88
2022/11/07 10:16:03;;;;;;;;;;;23.60;38.60;;;;;;5067450;28;19924;-90
2022/11/07 10:18:32;;;;;;;;;;;23.50;38.70;;;;;;5068164;28;20197;-87
2022/11/07 10:21:00;;;;;;;;;;;23.30;39.10;;;;;;5061080;28;19921;-88
2022/11/07 10:23:38;;;;;;;;;;;23.20;39.20;;;;;;5049720;28;20272;-89
2022/11/07 10:26:11;;;;;;;;;;;23.10;39.30;;;;;;5047349;28;19993;-87
2022/11/07 10:28:42;;;;;;;;;;;23.00;39.70;;;;;;5050440;28;20377;-88
2022/11/07 10:31:10;;;;;;;;;;;23.00;39.80;;;;;;5048965;28;19917;-90
2022/11/07 10:33:42;;;;;;;;;;;23.00;40.00;;;;;;5057430;28;19917;-87
2022/11/07 10:36:14;;;;;;;;;;;23.10;40.40;;;;;;5068495;28;19925;-87
2022/11/07 10:38:41;;;;;;;;;;;23.20;40.10;;;;;;5070681;28;19974;-87
2022/11/07 10:41:12;;;;;;;;;;;23.20;40.10;;;;;;5079537;28;19920;-89
2022/11/07 10:43:39;;;;;;;;;;;23.20;39.90;;;;;;5087252;28;19962;-89
2022/11/07 10:46:31;;;;;;;;;;;22.90;40.00;;;;;;5055294;28;19917;-89
2022/11/07 10:48:57;;;;;;;;;;;22.90;40.00;;;;;;5040930;28;19921;-89
2022/11/07 10:51:33;;;;;;;;;;;22.90;40.20;;;;;;5066646;28;20512;-88
2022/11/07 10:53:59;;;;;;;;;;;23.00;40.40;;;;;;5066840;28;20349;-88
2022/11/07 10:56:24;;;;;;;;;;;23.00;40.40;;;;;;5066832;28;20028;-87
2022/11/07 10:58:50;;;;;;;;;;;23.00;40.30;;;;;;5072966;28;20357;-90
2022/11/07 11:01:22;;;;;;;;;;;23.10;40.40;;;;;;5091324;28;19915;-89
2022/11/07 11:03:48;;;;;;;;;;;23.10;40.40;;;;;;5066303;28;20306;-88
2022/11/07 11:06:17;;;;;;;;;;;23.00;40.30;;;;;;5055398;28;19921;-87
2022/11/07 11:08:43;;;;;;;;;;;23.10;40.40;;;;;;5068267;28;19916;-87
2022/11/07 11:11:20;;;;;;;;;;;23.10;40.50;;;;;;5068169;28;20341;-88
2022/11/07 11:13:46;;;;;;;;;;;23.20;40.50;;;;;;5066451;28;19969;-86
2022/11/07 11:16:12;;;;;;;;;;;23.30;40.70;;;;;;5067995;28;20347;-87
2022/11/07 11:18:38;;;;;;;;;;;23.30;40.40;;;;;;5067969;28;19995;-90
2022/11/07 11:21:05;;;;;;;;;;;23.50;40.40;;;;;;5067630;28;19920;-87
2022/11/07 11:23:34;;;;;;;;;;;23.60;40.50;;;;;;5068376;28;19920;-89
2022/11/07 11:26:01;;;;;;;;;;;23.80;40.20;;;;;;5066440;28;19924;-88
2022/11/07 11:28:30;;;;;;;;;;;23.80;39.80;;;;;;5066118;28;19956;-89
2022/11/07 11:31:00;;;;;;;;;;;23.80;39.50;;;;;;5066432;28;19917;-89
2022/11/07 11:33:29;;;;;;;;;;;23.60;39.60;;;;;;5066233;28;19917;-88
2022/11/07 11:35:56;;;;;;;;;;;23.60;39.70;;;;;;5065848;28;19924;-89
2022/11/07 11:38:29;;;;;;;;;;;23.70;39.80;;;;;;5068262;28;20007;-87
2022/11/07 11:40:58;;;;;;;;;;;23.80;39.70;;;;;;5067111;28;19985;-89
2022/11/07 11:43:31;;;;;;;;;;;23.80;39.60;;;;;;5066112;28;19920;-89
2022/11/07 11:46:03;;;;;;;;;;;23.80;39.50;;;;;;5068406;28;19924;-89
2022/11/07 11:48:50;;;;;;;;;;;23.70;39.50;;;;;;5067387;28;19939;-89
2022/11/07 11:51:31;;;;;;;;;;;23.60;39.60;;;;;;5069435;28;20054;-89
2022/11/07 11:53:56;;;;;;;;;;;23.50;39.70;;;;;;5067631;28;19942;-87
2022/11/07 11:56:40;;;;;;;;;;;23.30;39.80;;;;;;5067090;28;19928;-89
2022/11/07 11:59:21;;;;;;;;;;;23.30;40.00;;;;;;5065947;28;19923;-89
2022/11/07 12:02:07;;;;;;;;;;;23.00;40.90;;;;;;5065923;28;20634;-88
2022/11/07 12:04:54;;;;;;;;;;;22.90;41.40;;;;;;5045260;28;19924;-89
2022/11/07 12:07:19;;;;;;;;;;;22.80;42.10;;;;;;5067455;28;19962;-89
2022/11/07 12:09:55;;;;;;;;;;;22.50;43.10;;;;;;5067421;28;19917;-89
2022/11/07 12:12:31;;;;;;;;;;;22.30;43.90;;;;;;5067701;28;19912;-87
2022/11/07 12:15:09;;;;;;;;;;;22.20;44.20;;;;;;5067475;28;20019;-89
2022/11/07 12:17:44;;;;;;;;;;;22.00;44.80;;;;;;5067112;28;20366;-90
2022/11/07 12:20:16;;;;;;;;;;;22.00;45.30;;;;;;5065239;28;20290;-89
2022/11/07 12:23:01;;;;;;;;;;;22.00;45.50;;;;;;5049678;28;19956;-89
2022/11/07 12:25:28;;;;;;;;;;;22.00;45.50;;;;;;5048043;28;20334;-89
2022/11/07 12:28:03;;;;;;;;;;;22.20;45.60;;;;;;5046813;28;20008;-88
2022/11/07 12:30:28;;;;;;;;;;;22.20;45.50;;;;;;5046555;28;19917;-89
2022/11/07 12:33:00;;;;;;;;;;;22.20;45.50;;;;;;5081708;28;20376;-89
2022/11/07 12:35:39;;;;;;;;;;;22.10;46.20;;;;;;5066604;28;19982;-87
2022/11/07 12:38:26;;;;;;;;;;;21.80;47.60;;;;;;5066318;28;19917;-89
2022/11/07 12:40:59;;;;;;;;;;;21.40;48.70;;;;;;5067930;28;19917;-89
2022/11/07 12:43:35;;;;;;;;;;;21.10;49.80;;;;;;5066660;28;19924;-89
2022/11/07 12:46:04;;;;;;;;;;;20.90;50.60;;;;;;5049080;28;19967;-89
2022/11/07 12:48:40;;;;;;;;;;;20.60;51.30;;;;;;5055293;28;20402;-90
2022/11/07 12:51:26;;;;;;;;;;;20.50;51.70;;;;;;5073552;28;19943;-88
2022/11/07 12:53:54;;;;;;;;;;;20.30;52.60;;;;;;5072479;28;19916;-89
2022/11/07 12:56:24;;;;;;;;;;;20.30;52.70;;;;;;5071011;28;19924;-88
2022/11/07 12:58:50;;;;;;;;;;;20.40;53.00;;;;;;5077301;28;19916;-88
2022/11/07 13:01:18;;;;;;;;;;;20.40;53.10;;;;;;5093438;28;19916;-87
2022/11/07 13:03:43;;;;;;;;;;;20.50;53.20;;;;;;5092109;28;19965;-89
2022/11/07 13:06:38;;;;;;;;;;;20.70;53.10;;;;;;5089086;28;20298;-89
2022/11/07 13:09:23;;;;;;;;;;;20.70;53.00;;;;;;5083101;28;20374;-86
2022/11/07 13:11:52;;;;;;;;;;;20.70;52.70;;;;;;5090572;28;19920;-88
2022/11/07 13:14:31;;;;;;;;;;;20.70;52.60;;;;;;5090872;28;19923;-89
2022/11/07 13:16:56;;;;;;;;;;;20.70;52.50;;;;;;5070945;28;20036;-89
2022/11/07 13:19:25;;;;;;;;;;;20.70;52.30;;;;;;5068981;28;20379;-88
2022/11/07 13:22:04;;;;;;;;;;;20.80;52.30;;;;;;5054062;28;20394;-89
2022/11/07 13:24:31;;;;;;;;;;;20.80;52.20;;;;;;5050753;28;20016;-88
2022/11/07 13:26:57;;;;;;;;;;;21.00;52.00;;;;;;5049746;28;19921;-89
2022/11/07 13:29:29;;;;;;;;;;;21.00;51.80;;;;;;5050297;28;19929;-87
2022/11/07 13:32:09;;;;;;;;;;;21.10;51.40;;;;;;5048438;28;19924;-88
2022/11/07 13:34:38;;;;;;;;;;;21.20;51.20;;;;;;5064959;28;19916;-86
2022/11/07 13:37:04;;;;;;;;;;;21.30;51.00;;;;;;5071240;28;19925;-88
2022/11/07 13:39:30;;;;;;;;;;;21.30;50.60;;;;;;5070922;28;20011;-89
2022/11/07 13:41:57;;;;;;;;;;;21.40;50.70;;;;;;5070603;28;19917;-88
2022/11/07 13:44:27;;;;;;;;;;;21.50;50.20;;;;;;5068172;28;19928;-90
2022/11/07 13:46:54;;;;;;;;;;;21.60;49.90;;;;;;5052240;28;19959;-88
2022/11/07 13:49:33;;;;;;;;;;;21.70;49.70;;;;;;5050168;28;19920;-89
2022/11/07 13:52:02;;;;;;;;;;;21.80;49.60;;;;;;5049656;28;19923;-89
2022/11/07 13:54:46;;;;;;;;;;;21.80;49.20;;;;;;5048888;28;19920;-88
2022/11/07 13:57:22;;;;;;;;;;;21.80;48.90;;;;;;5048238;28;19925;-90
2022/11/07 13:59:58;;;;;;;;;;;21.80;48.80;;;;;;5063154;28;20003;-88
2022/11/07 14:02:25;;;;;;;;;;;21.80;48.50;;;;;;5067721;28;19916;-87
2022/11/07 14:04:52;;;;;;;;;;;21.80;48.40;;;;;;5071362;28;20781;-88
2022/11/07 14:07:21;;;;;;;;;;;21.80;48.30;;;;;;5068075;28;20383;-88
2022/11/07 14:09:49;;;;;;;;;;;21.80;48.40;;;;;;5068957;28;20390;-87
2022/11/07 14:12:16;;;;;;;;;;;21.80;48.10;;;;;;5069597;28;20341;-88
2022/11/07 14:14:42;;;;;;;;;;;21.80;48.00;;;;;;5068607;28;19928;-87
2022/11/07 14:17:16;;;;;;;;;;;21.80;47.90;;;;;;5064845;28;19931;-89
2022/11/07 14:19:42;;;;;;;;;;;21.80;47.90;;;;;;5049546;28;19917;-87
2022/11/07 14:22:37;;;;;;;;;;;21.70;47.70;;;;;;5056053;28;19916;-89
2022/11/07 14:25:15;;;;;;;;;;;21.70;47.60;;;;;;5058404;28;19916;-88
2022/11/07 14:27:44;;;;;;;;;;;21.60;47.70;;;;;;5070024;28;19925;-88
2022/11/07 14:30:17;;;;;;;;;;;21.60;47.50;;;;;;5069648;28;19912;-89
2022/11/07 14:32:50;;;;;;;;;;;21.50;47.50;;;;;;5070120;28;19920;-90